createdAt,value
2023-05-17T00:00:25.485Z,77.96
2023-05-17T00:01:25.543Z,79.33
2023-05-17T00:02:25.631Z,79.60
2023-05-17T00:03:25.640Z,80.53
2023-05-17T00:04:25.732Z,79.61
2023-05-17T00:05:25.841Z,80.09
2023-05-17T00:06:25.855Z,79.51
2023-05-17T00:07:25.838Z,80.64
2023-05-17T00:08:25.888Z,80.81
2023-05-17T00:09:25.941Z,81.27
2023-05-17T00:10:25.979Z,82.73
2023-05-17T00:11:26.038Z,81.77
2023-05-17T00:12:26.184Z,80.61
2023-05-17T00:13:26.203Z,81.61
2023-05-17T00:14:26.196Z,81.68
2023-05-17T00:15:26.406Z,82.03
2023-05-17T00:16:26.312Z,82.03
2023-05-17T00:17:26.361Z,83.41
2023-05-17T00:18:26.576Z,83.55
2023-05-17T00:19:26.487Z,81.93
2023-05-17T00:20:26.519Z,83.49
2023-05-17T00:21:26.553Z,82.37
2023-05-17T00:22:26.648Z,82.79
2023-05-17T00:23:26.677Z,83.19
2023-05-17T00:24:26.725Z,83.50
2023-05-17T00:25:26.917Z,83.10
2023-05-17T00:26:26.818Z,82.34
2023-05-17T00:27:26.927Z,83.01
2023-05-17T00:28:26.945Z,82.17
2023-05-17T00:29:27.045Z,81.78
2023-05-17T00:30:27.039Z,82.09
2023-05-17T00:31:27.085Z,83.45
2023-05-17T00:32:27.202Z,82.56
2023-05-17T00:33:27.186Z,81.91
2023-05-17T00:34:27.247Z,80.64
2023-05-17T00:35:27.647Z,78.47
2023-05-17T00:36:27.332Z,80.68
2023-05-17T00:37:27.385Z,79.02
2023-05-17T00:38:27.454Z,79.07
2023-05-17T00:39:27.489Z,77.32
2023-05-17T00:40:27.549Z,75.55
2023-05-17T00:41:27.621Z,75.93
2023-05-17T00:42:27.652Z,75.07
2023-05-17T00:43:27.712Z,75.45
2023-05-17T00:44:27.771Z,75.34
2023-05-17T00:45:28.031Z,74.75
2023-05-17T00:46:27.876Z,77.07
2023-05-17T00:47:28.151Z,75.89
2023-05-17T00:48:28.066Z,74.34
2023-05-17T00:49:28.032Z,73.47
2023-05-17T00:50:28.102Z,72.60
2023-05-17T00:51:28.141Z,73.70
2023-05-17T00:52:28.175Z,72.71
2023-05-17T00:53:28.238Z,71.82
2023-05-17T00:54:28.272Z,70.57
2023-05-17T00:55:28.560Z,67.73
2023-05-17T00:56:28.383Z,65.80
2023-05-17T00:57:28.428Z,64.49
2023-05-17T00:58:28.553Z,65.36
2023-05-17T00:59:28.535Z,63.29
2023-05-17T01:00:28.591Z,62.05
2023-05-17T01:01:28.705Z,63.19
2023-05-17T01:02:28.931Z,64.24
2023-05-17T01:03:28.843Z,62.44
2023-05-17T01:04:28.816Z,63.65
2023-05-17T01:05:29.255Z,66.38
2023-05-17T01:06:28.929Z,63.73
2023-05-17T01:07:28.994Z,59.99
2023-05-17T01:08:29.051Z,61.14
2023-05-17T01:09:29.087Z,61.53
2023-05-17T01:10:29.147Z,62.23
2023-05-17T01:11:29.205Z,62.54
2023-05-17T01:12:29.245Z,61.42
2023-05-17T01:13:29.309Z,60.64
2023-05-17T01:14:29.371Z,59.61
2023-05-17T01:15:29.611Z,59.80
2023-05-17T01:16:29.448Z,58.08
2023-05-17T01:17:29.676Z,58.32
2023-05-17T01:18:29.656Z,57.37
2023-05-17T01:19:29.700Z,53.82
2023-05-17T01:20:29.810Z,56.10
2023-05-17T01:21:29.727Z,53.86
2023-05-17T01:22:29.802Z,55.98
2023-05-17T01:23:29.845Z,54.09
2023-05-17T01:24:29.893Z,52.78
2023-05-17T01:25:30.117Z,52.16
2023-05-17T01:26:30.013Z,56.83
2023-05-17T01:27:30.083Z,55.11
2023-05-17T01:28:30.138Z,54.68
2023-05-17T01:29:30.173Z,57.22
2023-05-17T01:30:30.249Z,53.12
2023-05-17T01:31:30.289Z,54.53
2023-05-17T01:32:30.381Z,53.13
2023-05-17T01:33:30.705Z,51.24
2023-05-17T01:34:30.495Z,50.25
2023-05-17T01:35:30.739Z,50.68
2023-05-17T01:36:30.570Z,50.99
2023-05-17T01:37:30.637Z,49.44
2023-05-17T01:38:30.688Z,47.89
2023-05-17T01:39:30.727Z,47.78
2023-05-17T01:40:30.795Z,47.07
2023-05-17T01:41:30.859Z,47.22
2023-05-17T01:42:30.913Z,48.73
2023-05-17T01:43:30.951Z,51.01
2023-05-17T01:44:33.043Z,53.25
2023-05-17T01:45:31.046Z,53.45
2023-05-17T01:46:31.107Z,53.95
2023-05-17T01:47:31.236Z,52.87
2023-05-17T01:48:31.246Z,53.69
2023-05-17T01:49:31.275Z,53.01
2023-05-17T01:50:31.325Z,54.88
2023-05-17T01:51:31.380Z,55.16
2023-05-17T01:52:31.443Z,55.56
2023-05-17T01:53:31.500Z,53.26
2023-05-17T01:54:31.590Z,53.27
2023-05-17T01:55:31.612Z,51.85
2023-05-17T01:56:31.696Z,52.91
2023-05-17T01:57:31.765Z,56.03
2023-05-17T01:58:31.809Z,56.59
2023-05-17T01:59:31.884Z,53.87
2023-05-17T02:00:31.949Z,53.00
2023-05-17T02:01:31.964Z,53.09
2023-05-17T02:02:32.089Z,53.61
2023-05-17T02:03:32.109Z,55.26
2023-05-17T02:04:32.199Z,57.78
2023-05-17T02:05:32.292Z,60.08
2023-05-17T02:06:32.326Z,60.69
2023-05-17T02:07:32.339Z,61.53
2023-05-17T02:08:32.378Z,61.48
2023-05-17T02:09:32.448Z,62.60
2023-05-17T02:10:32.504Z,61.66
2023-05-17T02:11:32.548Z,59.22
2023-05-17T02:12:32.613Z,60.17
2023-05-17T02:13:32.681Z,59.83
2023-05-17T02:14:32.735Z,59.57
2023-05-17T02:15:32.808Z,60.57
2023-05-17T02:16:32.868Z,60.85
2023-05-17T02:17:32.968Z,62.37
2023-05-17T02:18:33.040Z,62.49
2023-05-17T02:19:33.038Z,61.86
2023-05-17T02:20:33.092Z,61.95
2023-05-17T02:21:33.205Z,63.52
2023-05-17T02:22:33.241Z,62.70
2023-05-17T02:23:33.256Z,62.54
2023-05-17T02:24:33.320Z,62.84
2023-05-17T02:25:33.373Z,62.72
2023-05-17T02:26:33.417Z,63.30
2023-05-17T02:27:33.478Z,62.34
2023-05-17T02:28:33.511Z,61.53
2023-05-17T02:29:33.578Z,62.15
2023-05-17T02:30:33.645Z,63.37
2023-05-17T02:31:33.701Z,61.77
2023-05-17T02:32:33.854Z,62.55
2023-05-17T02:33:33.840Z,62.33
2023-05-17T02:34:33.860Z,64.01
2023-05-17T02:35:33.937Z,62.22
2023-05-17T02:36:33.969Z,61.42
2023-05-17T02:37:34.172Z,63.12
2023-05-17T02:38:34.103Z,62.20
2023-05-17T02:39:34.157Z,63.19
2023-05-17T02:40:34.216Z,61.75
2023-05-17T02:41:34.282Z,62.45
2023-05-17T02:42:34.410Z,63.20
2023-05-17T02:43:34.391Z,62.30
2023-05-17T02:44:34.445Z,61.75
2023-05-17T02:45:34.490Z,60.23
2023-05-17T02:46:35.246Z,59.92
2023-05-17T02:47:34.722Z,59.16
2023-05-17T02:48:34.675Z,58.66
2023-05-17T02:49:34.719Z,58.52
2023-05-17T02:50:34.774Z,59.74
2023-05-17T02:51:34.850Z,59.54
2023-05-17T02:52:34.904Z,57.24
2023-05-17T02:53:35.000Z,56.72
2023-05-17T02:54:34.982Z,53.98
2023-05-17T02:55:35.069Z,53.15
2023-05-17T02:56:35.095Z,54.05
2023-05-17T02:57:35.156Z,51.60
2023-05-17T02:58:35.175Z,52.09
2023-05-17T02:59:35.243Z,52.04
2023-05-17T03:00:35.281Z,52.39
2023-05-17T03:01:35.326Z,53.19
2023-05-17T03:02:35.487Z,51.55
2023-05-17T03:03:35.632Z,51.12
2023-05-17T03:04:35.562Z,52.35
2023-05-17T03:05:35.592Z,53.10
2023-05-17T03:06:35.624Z,53.75
2023-05-17T03:07:35.673Z,51.56
2023-05-17T03:08:35.730Z,52.69
2023-05-17T03:09:35.818Z,50.39
2023-05-17T03:10:35.789Z,50.60
2023-05-17T03:11:35.849Z,50.12
2023-05-17T03:12:35.887Z,50.24
2023-05-17T03:13:35.950Z,50.75
2023-05-17T03:14:35.979Z,50.76
2023-05-17T03:15:36.027Z,50.52
2023-05-17T03:16:36.069Z,48.79
2023-05-17T03:17:36.192Z,50.07
2023-05-17T03:18:36.313Z,50.97
2023-05-17T03:19:36.239Z,51.23
2023-05-17T03:20:36.274Z,51.03
2023-05-17T03:21:36.338Z,52.17
2023-05-17T03:22:36.416Z,52.33
2023-05-17T03:23:36.436Z,54.68
2023-05-17T03:24:36.475Z,54.18
2023-05-17T03:25:36.575Z,53.93
2023-05-17T03:26:36.564Z,50.79
2023-05-17T03:27:36.664Z,50.42
2023-05-17T03:28:36.625Z,51.27
2023-05-17T03:29:36.694Z,52.47
2023-05-17T03:30:36.803Z,51.19
2023-05-17T03:31:36.784Z,52.19
2023-05-17T03:32:36.908Z,49.11
2023-05-17T03:33:36.920Z,51.82
2023-05-17T03:34:36.945Z,51.00
2023-05-17T03:35:36.964Z,54.19
2023-05-17T03:36:37.010Z,53.57
2023-05-17T03:37:37.062Z,54.28
2023-05-17T03:38:37.108Z,54.83
2023-05-17T03:39:37.174Z,53.84
2023-05-17T03:40:37.247Z,53.72
2023-05-17T03:41:37.377Z,53.20
2023-05-17T03:42:37.330Z,52.79
2023-05-17T03:43:37.366Z,52.53
2023-05-17T03:44:37.412Z,52.19
2023-05-17T03:45:37.496Z,50.54
2023-05-17T03:46:37.519Z,51.52
2023-05-17T03:47:37.714Z,51.29
2023-05-17T03:48:37.705Z,51.94
2023-05-17T03:49:37.699Z,51.03
2023-05-17T03:50:37.788Z,52.19
2023-05-17T03:51:37.829Z,52.05
2023-05-17T03:52:37.856Z,51.75
2023-05-17T03:53:37.932Z,51.12
2023-05-17T03:54:37.960Z,54.03
2023-05-17T03:55:38.005Z,51.11
2023-05-17T03:56:38.051Z,50.36
2023-05-17T03:57:38.221Z,47.87
2023-05-17T03:58:38.161Z,48.03
2023-05-17T03:59:38.180Z,48.52
2023-05-17T04:00:38.241Z,48.54
2023-05-17T04:01:38.321Z,47.36
2023-05-17T04:02:38.352Z,46.78
2023-05-17T04:03:38.454Z,47.51
2023-05-17T04:04:38.413Z,46.94
2023-05-17T04:05:38.483Z,48.35
2023-05-17T04:06:38.497Z,51.50
2023-05-17T04:07:38.526Z,51.26
2023-05-17T04:08:38.552Z,53.32
2023-05-17T04:09:38.613Z,54.01
2023-05-17T04:10:38.632Z,54.62
2023-05-17T04:11:38.666Z,56.39
2023-05-17T04:12:38.723Z,57.57
2023-05-17T04:13:38.872Z,60.16
2023-05-17T04:14:38.883Z,60.33
2023-05-17T04:15:38.844Z,57.85
2023-05-17T04:16:38.915Z,56.46
2023-05-17T04:17:38.951Z,57.26
2023-05-17T04:18:39.249Z,57.65
2023-05-17T04:19:39.019Z,57.32
2023-05-17T04:20:39.048Z,56.49
2023-05-17T04:21:39.094Z,57.16
2023-05-17T04:22:39.147Z,57.32
2023-05-17T04:23:39.208Z,56.75
2023-05-17T04:24:39.230Z,56.92
2023-05-17T04:25:39.318Z,56.50
2023-05-17T04:26:39.358Z,54.15
2023-05-17T04:27:39.432Z,53.98
2023-05-17T04:28:39.494Z,55.18
2023-05-17T04:29:39.681Z,53.33
2023-05-17T04:30:39.587Z,52.39
2023-05-17T04:31:39.641Z,51.86
2023-05-17T04:32:39.747Z,51.12
2023-05-17T04:33:39.761Z,50.02
2023-05-17T04:34:39.823Z,50.15
2023-05-17T04:35:39.847Z,50.81
2023-05-17T04:36:39.898Z,48.69
2023-05-17T04:37:39.940Z,49.26
2023-05-17T04:38:40.054Z,47.73
2023-05-17T04:39:40.054Z,49.28
2023-05-17T04:40:40.110Z,49.00
2023-05-17T04:41:40.150Z,48.21
2023-05-17T04:42:40.236Z,47.22
2023-05-17T04:43:40.272Z,47.47
2023-05-17T04:44:40.334Z,45.40
2023-05-17T04:45:40.516Z,44.64
2023-05-17T04:46:40.421Z,44.91
2023-05-17T04:47:40.577Z,44.84
2023-05-17T04:48:40.623Z,45.57
2023-05-17T04:49:40.575Z,45.02
2023-05-17T04:50:40.640Z,44.01
2023-05-17T04:51:40.677Z,45.67
2023-05-17T04:52:40.726Z,43.43
2023-05-17T04:53:40.805Z,45.86
2023-05-17T04:54:40.842Z,43.48
2023-05-17T04:55:40.913Z,42.49
2023-05-17T04:56:40.968Z,39.88
2023-05-17T04:57:41.024Z,43.33
2023-05-17T04:58:41.070Z,44.27
2023-05-17T04:59:41.114Z,42.91
2023-05-17T05:00:41.151Z,40.59
2023-05-17T05:01:41.217Z,42.19
2023-05-17T05:02:41.280Z,40.67
2023-05-17T05:03:41.329Z,42.23
2023-05-17T05:04:41.386Z,38.25
2023-05-17T05:05:41.380Z,40.37
2023-05-17T05:06:41.421Z,41.95
2023-05-17T05:07:41.474Z,41.27
2023-05-17T05:08:41.610Z,44.08
2023-05-17T05:09:41.528Z,45.75
2023-05-17T05:10:41.584Z,48.25
2023-05-17T05:11:41.632Z,47.42
2023-05-17T05:12:41.677Z,48.42
2023-05-17T05:13:41.772Z,48.45
2023-05-17T05:14:41.771Z,45.82
2023-05-17T05:15:41.804Z,43.11
2023-05-17T05:16:41.856Z,42.27
2023-05-17T05:17:42.142Z,42.80
2023-05-17T05:18:42.043Z,43.07
2023-05-17T05:19:42.094Z,39.49
2023-05-17T05:20:42.034Z,38.49
2023-05-17T05:21:42.090Z,37.90
2023-05-17T05:22:42.086Z,36.31
2023-05-17T05:23:42.133Z,35.45
2023-05-17T05:24:42.158Z,36.70
2023-05-17T05:25:42.185Z,39.26
2023-05-17T05:26:42.191Z,43.90
2023-05-17T05:27:42.446Z,45.77
2023-05-17T05:28:42.271Z,45.68
2023-05-17T05:29:42.318Z,48.85
2023-05-17T05:30:42.370Z,54.14
2023-05-17T05:31:42.460Z,49.02
2023-05-17T05:32:42.570Z,51.45
2023-05-17T05:33:42.786Z,60.61
2023-05-17T05:34:42.600Z,60.99
2023-05-17T05:35:42.661Z,67.67
2023-05-17T05:36:42.754Z,79.90
2023-05-17T05:37:42.778Z,84.40
2023-05-17T05:38:42.836Z,86.04
2023-05-17T05:39:42.885Z,89.65
2023-05-17T05:40:42.968Z,99.38
2023-05-17T05:41:43.024Z,108.92
2023-05-17T05:42:43.082Z,121.67
2023-05-17T05:43:43.111Z,131.40
2023-05-17T05:44:43.203Z,130.92
2023-05-17T05:45:43.172Z,136.39
2023-05-17T05:46:43.231Z,138.41
2023-05-17T05:47:43.373Z,142.81
2023-05-17T05:48:43.458Z,151.62
2023-05-17T05:49:43.370Z,159.43
2023-05-17T05:50:43.389Z,153.42
2023-05-17T05:51:43.433Z,160.32
2023-05-17T05:52:43.485Z,167.52
2023-05-17T05:53:43.523Z,167.56
2023-05-17T05:54:43.545Z,170.70
2023-05-17T05:55:43.615Z,178.42
2023-05-17T05:56:43.617Z,180.00
2023-05-17T05:57:43.667Z,178.10
2023-05-17T05:58:43.682Z,183.87
2023-05-17T05:59:43.719Z,188.34
2023-05-17T06:00:43.775Z,189.75
2023-05-17T06:01:43.781Z,192.41
2023-05-17T06:02:43.802Z,195.03
2023-05-17T06:03:43.848Z,196.24
2023-05-17T06:04:45.605Z,197.72
2023-05-17T06:05:44.034Z,199.00
2023-05-17T06:06:44.052Z,203.65
2023-05-17T06:07:43.963Z,204.68
2023-05-17T06:08:43.992Z,203.74
2023-05-17T06:09:44.025Z,203.57
2023-05-17T06:10:44.205Z,200.97
2023-05-17T06:11:44.078Z,200.12
2023-05-17T06:12:44.119Z,206.52
2023-05-17T06:13:44.126Z,208.61
2023-05-17T06:14:44.178Z,210.40
2023-05-17T06:15:44.244Z,211.03
2023-05-17T06:16:44.220Z,213.65
2023-05-17T06:17:44.350Z,215.11
2023-05-17T06:18:44.348Z,215.63
2023-05-17T06:19:44.333Z,216.93
2023-05-17T06:20:44.289Z,217.57
2023-05-17T06:21:44.399Z,215.73
2023-05-17T06:22:44.489Z,215.12
2023-05-17T06:23:44.393Z,218.28
2023-05-17T06:24:44.389Z,221.98
2023-05-17T06:25:44.409Z,222.98
2023-05-17T06:26:44.418Z,219.67
2023-05-17T06:27:44.461Z,213.93
2023-05-17T06:28:44.606Z,216.76
2023-05-17T06:29:44.502Z,219.82
2023-05-17T06:30:44.514Z,219.00
2023-05-17T06:31:44.539Z,210.62
2023-05-17T06:32:44.987Z,207.79
2023-05-17T06:33:44.618Z,198.71
2023-05-17T06:34:46.558Z,206.99
2023-05-17T06:35:56.309Z,202.88
2023-05-17T06:36:45.673Z,203.14
2023-05-17T06:37:44.756Z,204.55
2023-05-17T06:38:44.641Z,207.75
2023-05-17T06:39:47.968Z,211.83
2023-05-17T06:40:45.625Z,203.54
2023-05-17T06:41:44.632Z,205.83
2023-05-17T06:42:44.994Z,209.68
2023-05-17T06:43:44.992Z,216.80
2023-05-17T06:44:44.747Z,217.88
2023-05-17T06:45:44.575Z,224.90
2023-05-17T06:46:44.579Z,215.36
2023-05-17T06:47:44.647Z,216.56
2023-05-17T06:48:44.728Z,221.94
2023-05-17T06:49:44.545Z,222.15
2023-05-17T06:50:44.535Z,212.31
2023-05-17T06:51:44.552Z,219.11
2023-05-17T06:52:44.531Z,220.94
2023-05-17T06:53:44.588Z,219.19
2023-05-17T06:54:44.512Z,219.11
2023-05-17T06:55:44.522Z,215.99
2023-05-17T06:56:44.676Z,212.02
2023-05-17T06:57:44.533Z,216.33
2023-05-17T06:58:44.493Z,214.80
2023-05-17T06:59:44.470Z,215.34
2023-05-17T07:00:44.500Z,220.07
2023-05-17T07:01:44.458Z,220.90
2023-05-17T07:02:44.566Z,221.36
2023-05-17T07:03:44.679Z,223.40
2023-05-17T07:04:44.476Z,219.98
2023-05-17T07:05:44.444Z,223.45
2023-05-17T07:06:44.445Z,240.19
2023-05-17T07:07:44.475Z,238.57
2023-05-17T07:08:44.467Z,234.01
2023-05-17T07:09:44.473Z,235.63
2023-05-17T07:10:44.425Z,233.29
2023-05-17T07:11:44.387Z,232.91
2023-05-17T07:12:44.390Z,234.44
2023-05-17T07:13:44.371Z,233.43
2023-05-17T07:14:44.363Z,232.53
2023-05-17T07:15:44.380Z,231.09
2023-05-17T07:16:44.360Z,230.69
2023-05-17T07:17:44.382Z,228.25
2023-05-17T07:18:44.542Z,230.92
2023-05-17T07:19:44.502Z,231.80
2023-05-17T07:20:44.323Z,230.59
2023-05-17T07:21:44.333Z,224.82
2023-05-17T07:22:44.365Z,228.97
2023-05-17T07:23:44.300Z,212.92
2023-05-17T07:24:44.320Z,201.43
2023-05-17T07:25:44.365Z,197.10
2023-05-17T07:26:44.312Z,189.72
2023-05-17T07:27:44.291Z,189.14
2023-05-17T07:28:44.283Z,192.27
2023-05-17T07:29:44.261Z,203.71
2023-05-17T07:30:44.284Z,219.27
2023-05-17T07:31:44.279Z,223.94
2023-05-17T07:32:44.533Z,221.89
2023-05-17T07:33:44.378Z,221.60
2023-05-17T07:34:44.610Z,224.07
2023-05-17T07:35:44.668Z,223.92
2023-05-17T07:36:44.406Z,221.34
2023-05-17T07:37:44.522Z,224.42
2023-05-17T07:38:44.422Z,216.12
2023-05-17T07:39:44.459Z,216.15
2023-05-17T07:40:44.471Z,213.63
2023-05-17T07:41:44.483Z,216.80
2023-05-17T07:42:44.514Z,216.62
2023-05-17T07:43:44.516Z,216.93
2023-05-17T07:44:44.542Z,216.20
2023-05-17T07:45:44.575Z,211.08
2023-05-17T07:46:44.608Z,210.05
2023-05-17T07:47:44.708Z,212.46
2023-05-17T07:48:44.713Z,212.73
2023-05-17T07:49:44.657Z,212.53
2023-05-17T07:50:44.655Z,200.36
2023-05-17T07:51:44.696Z,199.04
2023-05-17T07:52:45.010Z,194.99
2023-05-17T07:53:44.725Z,196.06
2023-05-17T07:54:44.773Z,186.52
2023-05-17T07:55:47.497Z,187.87
2023-05-17T07:56:44.793Z,185.64
2023-05-17T07:57:44.781Z,194.21
2023-05-17T07:58:44.759Z,176.67
2023-05-17T07:59:44.765Z,175.19
2023-05-17T08:00:44.749Z,177.72
2023-05-17T08:01:44.778Z,189.07
2023-05-17T08:02:45.042Z,194.75
2023-05-17T08:03:44.738Z,192.54
2023-05-17T08:04:44.750Z,192.83
2023-05-17T08:05:44.794Z,176.74
2023-05-17T08:06:44.719Z,169.64
2023-05-17T08:07:45.025Z,169.78
2023-05-17T08:08:44.698Z,166.96
2023-05-17T08:09:44.684Z,172.44
2023-05-17T08:10:44.677Z,172.83
2023-05-17T08:11:44.685Z,174.12
2023-05-17T08:12:44.708Z,170.83
2023-05-17T08:13:44.719Z,176.96
2023-05-17T08:14:44.653Z,178.38
2023-05-17T08:15:44.661Z,176.94
2023-05-17T08:16:44.647Z,180.59
2023-05-17T08:17:44.721Z,192.20
2023-05-17T08:18:44.764Z,189.89
2023-05-17T08:19:44.762Z,188.61
2023-05-17T08:20:44.604Z,186.54
2023-05-17T08:21:44.628Z,188.01
2023-05-17T08:22:45.015Z,187.32
2023-05-17T08:23:44.590Z,182.77
2023-05-17T08:24:44.584Z,185.57
2023-05-17T08:25:45.473Z,183.18
2023-05-17T08:26:44.609Z,187.23
2023-05-17T08:27:44.563Z,179.24
2023-05-17T08:28:44.546Z,172.90
2023-05-17T08:29:44.658Z,174.94
2023-05-17T08:30:44.599Z,176.31
2023-05-17T08:31:44.574Z,176.71
2023-05-17T08:32:45.125Z,167.99
2023-05-17T08:33:45.041Z,164.58
2023-05-17T08:34:44.525Z,154.70
2023-05-17T08:35:44.521Z,151.62
2023-05-17T08:36:44.617Z,149.87
2023-05-17T08:37:44.488Z,162.41
2023-05-17T08:38:44.491Z,162.93
2023-05-17T08:39:44.525Z,157.67
2023-05-17T08:40:44.511Z,135.06
2023-05-17T08:41:44.467Z,128.13
2023-05-17T08:42:44.477Z,125.01
2023-05-17T08:43:44.562Z,132.27
2023-05-17T08:44:44.544Z,134.61
2023-05-17T08:45:44.432Z,145.46
2023-05-17T08:46:44.433Z,154.92
2023-05-17T08:47:44.451Z,155.99
2023-05-17T08:48:44.469Z,151.12
2023-05-17T08:49:46.344Z,144.48
2023-05-17T08:50:44.406Z,140.75
2023-05-17T08:51:44.399Z,142.19
2023-05-17T08:52:44.465Z,139.41
2023-05-17T08:53:44.386Z,134.47
2023-05-17T08:54:44.366Z,135.90
2023-05-17T08:55:44.357Z,140.71
2023-05-17T08:56:44.352Z,147.79
2023-05-17T08:57:44.605Z,153.99
2023-05-17T08:58:56.275Z,163.30
2023-05-17T08:59:45.369Z,163.81
2023-05-17T09:00:44.420Z,166.61
2023-05-17T09:01:44.357Z,169.53
2023-05-17T09:02:44.410Z,168.96
2023-05-17T09:03:44.560Z,178.86
2023-05-17T09:04:44.404Z,186.46
2023-05-17T09:05:44.361Z,189.97
2023-05-17T09:06:44.295Z,192.87
2023-05-17T09:07:44.282Z,195.47
2023-05-17T09:08:44.285Z,195.74
2023-05-17T09:09:44.332Z,184.72
2023-05-17T09:10:44.334Z,193.57
2023-05-17T09:11:44.329Z,192.94
2023-05-17T09:12:44.366Z,199.27
2023-05-17T09:13:44.411Z,201.11
2023-05-17T09:14:44.392Z,204.77
2023-05-17T09:15:44.419Z,203.51
2023-05-17T09:16:44.444Z,203.93
2023-05-17T09:17:44.572Z,206.14
2023-05-17T09:18:44.584Z,207.15
2023-05-17T09:19:44.639Z,207.73
2023-05-17T09:20:44.458Z,207.46
2023-05-17T09:21:44.466Z,209.36
2023-05-17T09:22:44.488Z,211.89
2023-05-17T09:23:48.974Z,212.45
2023-05-17T09:24:45.510Z,209.58
2023-05-17T09:25:44.511Z,212.52
2023-05-17T09:26:44.626Z,211.81
2023-05-17T09:27:44.464Z,187.73
2023-05-17T09:28:44.542Z,193.82
2023-05-17T09:29:44.458Z,196.27
2023-05-17T09:30:44.445Z,200.82
2023-05-17T09:31:44.424Z,196.88
2023-05-17T09:32:44.455Z,198.46
2023-05-17T09:33:44.725Z,192.12
2023-05-17T09:34:44.406Z,178.91
2023-05-17T09:35:44.451Z,158.56
2023-05-17T09:36:44.529Z,146.48
2023-05-17T09:37:44.420Z,132.25
2023-05-17T09:38:44.558Z,133.44
2023-05-17T09:39:44.369Z,135.80
2023-05-17T09:40:44.399Z,129.16
2023-05-17T09:41:44.397Z,123.47
2023-05-17T09:42:44.469Z,120.03
2023-05-17T09:43:44.534Z,126.52
2023-05-17T09:44:44.570Z,125.12
2023-05-17T09:45:44.623Z,121.38
2023-05-17T09:46:44.675Z,124.18
2023-05-17T09:47:44.756Z,122.58
2023-05-17T09:48:44.857Z,125.12
2023-05-17T09:49:44.780Z,117.63
2023-05-17T09:50:44.813Z,119.34
2023-05-17T09:51:44.855Z,119.57
2023-05-17T09:52:44.876Z,118.63
2023-05-17T09:53:44.904Z,118.23
2023-05-17T09:54:44.939Z,113.30
2023-05-17T09:55:44.958Z,118.42
2023-05-17T09:56:45.017Z,115.54
2023-05-17T09:57:45.053Z,114.76
2023-05-17T09:58:45.081Z,116.09
2023-05-17T09:59:45.106Z,116.69
2023-05-17T10:00:45.416Z,114.42
2023-05-17T10:01:45.631Z,116.07
2023-05-17T10:02:45.247Z,126.03
2023-05-17T10:03:45.268Z,130.76
2023-05-17T10:04:45.273Z,136.30
2023-05-17T10:05:45.301Z,151.71
2023-05-17T10:06:49.771Z,159.09
2023-05-17T10:07:46.337Z,157.94
2023-05-17T10:08:45.310Z,156.31
2023-05-17T10:09:45.307Z,160.48
2023-05-17T10:10:45.286Z,164.04
2023-05-17T10:11:45.275Z,158.01
2023-05-17T10:12:45.288Z,156.20
2023-05-17T10:13:45.267Z,155.55
2023-05-17T10:14:45.343Z,147.02
2023-05-17T10:15:45.248Z,142.75
2023-05-17T10:16:45.253Z,143.08
2023-05-17T10:17:45.809Z,146.57
2023-05-17T10:18:45.673Z,133.99
2023-05-17T10:19:45.341Z,139.73
2023-05-17T10:20:45.219Z,155.57
2023-05-17T10:21:45.227Z,161.59
2023-05-17T10:22:45.216Z,171.16
2023-05-17T10:23:45.588Z,179.64
2023-05-17T10:24:45.206Z,179.47
2023-05-17T10:25:45.178Z,182.58
2023-05-17T10:26:45.184Z,186.77
2023-05-17T10:27:45.177Z,190.42
2023-05-17T10:28:45.185Z,195.14
2023-05-17T10:29:47.669Z,196.56
2023-05-17T10:30:45.162Z,195.75
2023-05-17T10:31:45.127Z,193.00
2023-05-17T10:32:45.219Z,193.28
2023-05-17T10:33:45.224Z,189.87
2023-05-17T10:34:47.491Z,187.68
2023-05-17T10:35:46.096Z,187.70
2023-05-17T10:36:45.126Z,181.64
2023-05-17T10:37:45.082Z,177.72
2023-05-17T10:38:45.108Z,178.60
2023-05-17T10:39:45.087Z,175.50
2023-05-17T10:40:45.084Z,174.23
2023-05-17T10:41:45.069Z,171.89
2023-05-17T10:42:45.073Z,168.93
2023-05-17T10:43:45.054Z,166.64
2023-05-17T10:44:45.054Z,164.03
2023-05-17T10:45:45.035Z,164.21
2023-05-17T10:46:45.019Z,160.75
2023-05-17T10:47:45.034Z,158.61
2023-05-17T10:48:45.086Z,152.78
2023-05-17T10:49:45.009Z,154.31
2023-05-17T10:50:54.384Z,158.60
2023-05-17T10:51:46.010Z,156.74
2023-05-17T10:52:44.986Z,161.86
2023-05-17T10:53:44.980Z,167.42
2023-05-17T10:54:45.125Z,175.64
2023-05-17T10:55:44.946Z,186.56
2023-05-17T10:56:44.975Z,184.53
2023-05-17T10:57:50.940Z,180.86
2023-05-17T10:58:45.934Z,181.12
2023-05-17T10:59:44.957Z,195.05
2023-05-17T11:00:44.904Z,231.97
2023-05-17T11:01:44.904Z,274.24
2023-05-17T11:02:44.963Z,321.74
2023-05-17T11:03:44.906Z,299.70
2023-05-17T11:04:44.982Z,291.32
2023-05-17T11:05:44.935Z,277.27
2023-05-17T11:06:44.969Z,271.51
2023-05-17T11:07:45.077Z,255.64
2023-05-17T11:08:45.086Z,250.00
2023-05-17T11:09:44.979Z,233.90
2023-05-17T11:10:44.854Z,217.54
2023-05-17T11:11:44.851Z,209.32
2023-05-17T11:12:44.882Z,192.58
2023-05-17T11:13:44.845Z,180.17
2023-05-17T11:14:44.826Z,171.29
2023-05-17T11:15:44.836Z,165.12
2023-05-17T11:16:44.822Z,161.25
2023-05-17T11:17:44.886Z,155.47
2023-05-17T11:18:45.194Z,150.12
2023-05-17T11:19:44.852Z,144.45
2023-05-17T11:20:44.948Z,137.82
2023-05-17T11:21:44.777Z,135.83
2023-05-17T11:22:44.760Z,128.50
2023-05-17T11:23:44.781Z,124.28
2023-05-17T11:24:44.744Z,120.84
2023-05-17T11:25:44.751Z,118.03
2023-05-17T11:26:44.732Z,115.45
2023-05-17T11:27:44.728Z,112.49
2023-05-17T11:28:44.753Z,111.31
2023-05-17T11:29:44.757Z,107.93
2023-05-17T11:30:44.749Z,104.95
2023-05-17T11:31:44.754Z,105.12
2023-05-17T11:32:44.816Z,100.72
2023-05-17T11:33:44.919Z,98.72
2023-05-17T11:34:44.814Z,98.96
2023-05-17T11:35:44.807Z,96.72
2023-05-17T11:36:44.825Z,94.71
2023-05-17T11:37:44.847Z,92.75
2023-05-17T11:38:45.462Z,89.66
2023-05-17T11:39:44.843Z,90.05
2023-05-17T11:40:44.859Z,87.54
2023-05-17T11:41:44.878Z,88.33
2023-05-17T11:42:44.884Z,85.17
2023-05-17T11:43:44.881Z,84.37
2023-05-17T11:44:44.940Z,85.39
2023-05-17T11:45:44.911Z,83.58
2023-05-17T11:46:44.909Z,83.40
2023-05-17T11:47:44.988Z,81.62
2023-05-17T11:48:45.002Z,81.86
2023-05-17T11:49:44.958Z,80.97
2023-05-17T11:50:44.957Z,79.54
2023-05-17T11:51:44.989Z,78.83
2023-05-17T11:52:45.015Z,76.24
2023-05-17T11:53:45.000Z,76.76
2023-05-17T11:54:45.064Z,74.85
2023-05-17T11:55:45.015Z,75.00
2023-05-17T11:56:45.057Z,76.04
2023-05-17T11:57:45.077Z,74.10
2023-05-17T11:58:45.091Z,74.85
2023-05-17T11:59:45.120Z,74.48
2023-05-17T12:00:45.119Z,73.53
2023-05-17T12:01:45.167Z,74.03
2023-05-17T12:02:45.173Z,74.84
2023-05-17T12:03:45.605Z,75.10
2023-05-17T12:04:45.219Z,76.34
2023-05-17T12:05:45.153Z,76.70
2023-05-17T12:06:45.359Z,76.32
2023-05-17T12:07:45.181Z,74.36
2023-05-17T12:08:45.210Z,75.60
2023-05-17T12:09:45.225Z,75.21
2023-05-17T12:10:45.262Z,73.38
2023-05-17T12:11:45.259Z,74.97
2023-05-17T12:12:45.267Z,77.06
2023-05-17T12:13:45.287Z,74.75
2023-05-17T12:14:45.291Z,75.69
2023-05-17T12:15:45.317Z,76.73
2023-05-17T12:16:45.331Z,79.19
2023-05-17T12:17:45.488Z,78.35
2023-05-17T12:18:45.528Z,78.02
2023-05-17T12:19:45.548Z,76.84
2023-05-17T12:20:45.396Z,75.96
2023-05-17T12:21:45.398Z,77.66
2023-05-17T12:22:45.446Z,77.51
2023-05-17T12:23:45.459Z,78.35
2023-05-17T12:24:45.499Z,78.53
2023-05-17T12:25:45.489Z,80.60
2023-05-17T12:26:45.494Z,79.01
2023-05-17T12:27:45.532Z,79.99
2023-05-17T12:28:45.574Z,82.08
2023-05-17T12:29:45.582Z,81.33
2023-05-17T12:30:45.572Z,80.49
2023-05-17T12:31:45.586Z,79.36
2023-05-17T12:32:45.681Z,79.75
2023-05-17T12:33:45.731Z,79.11
2023-05-17T12:34:45.635Z,82.05
2023-05-17T12:35:45.671Z,80.51
2023-05-17T12:36:45.733Z,83.33
2023-05-17T12:37:45.706Z,82.09
2023-05-17T12:38:45.772Z,82.65
2023-05-17T12:39:45.738Z,83.06
2023-05-17T12:40:45.777Z,83.88
2023-05-17T12:41:45.761Z,84.26